createdAt,value
2023-02-02T00:02:22.458Z,4.70
2023-02-02T00:04:57.546Z,4.63
2023-02-02T00:07:32.694Z,4.88
2023-02-02T00:10:12.932Z,4.63
2023-02-02T00:12:52.652Z,4.53
2023-02-02T00:15:35.460Z,4.10
2023-02-02T00:18:16.062Z,4.03
2023-02-02T00:20:53.759Z,4.10
2023-02-02T00:23:31.370Z,4.88
2023-02-02T00:26:09.647Z,4.30
2023-02-02T00:28:48.512Z,4.47
2023-02-02T00:31:26.384Z,4.22
2023-02-02T00:34:01.636Z,3.05
2023-02-02T00:36:40.642Z,4.18
2023-02-02T00:39:18.741Z,3.33
2023-02-02T00:41:54.444Z,2.55
2023-02-02T00:44:45.266Z,3.72
2023-02-02T00:47:26.570Z,3.60
2023-02-02T00:50:01.916Z,4.50
2023-02-02T00:52:41.584Z,3.60
2023-02-02T00:55:30.773Z,4.03
2023-02-02T00:58:11.060Z,3.63
2023-02-02T01:00:49.530Z,3.47
2023-02-02T01:03:27.982Z,3.22
2023-02-02T01:06:02.824Z,3.90
2023-02-02T01:08:36.772Z,2.80
2023-02-02T01:11:12.815Z,3.70
2023-02-02T01:13:51.213Z,2.80
2023-02-02T01:16:32.060Z,2.78
2023-02-02T01:19:16.590Z,3.17
2023-02-02T01:21:57.496Z,3.92
2023-02-02T01:24:29.666Z,2.80
2023-02-02T01:27:07.909Z,4.55
2023-02-02T01:29:55.045Z,4.03
2023-02-02T01:32:38.247Z,3.15
2023-02-02T01:35:20.767Z,5.05
2023-02-02T01:38:01.471Z,3.50
2023-02-02T01:40:52.363Z,2.75
2023-02-02T01:43:52.703Z,2.70
2023-02-02T01:46:36.097Z,3.05
2023-02-02T01:49:23.892Z,2.33
2023-02-02T01:51:56.799Z,2.75
2023-02-02T01:54:41.975Z,2.95
2023-02-02T01:57:17.209Z,3.50
2023-02-02T01:59:55.128Z,3.28
2023-02-02T02:02:33.724Z,2.45
2023-02-02T02:05:13.278Z,2.58
2023-02-02T02:07:53.141Z,2.72
2023-02-02T02:10:36.736Z,2.70
2023-02-02T02:13:18.029Z,2.50
2023-02-02T02:16:18.826Z,2.67
2023-02-02T02:19:18.319Z,2.70
2023-02-02T02:22:26.663Z,2.88
2023-02-02T02:25:39.441Z,2.90
2023-02-02T02:28:31.199Z,2.63
2023-02-02T02:31:20.261Z,2.05
2023-02-02T02:34:14.900Z,2.65
2023-02-02T02:37:00.247Z,1.80
2023-02-02T02:39:41.576Z,2.10
2023-02-02T02:42:24.915Z,2.03
2023-02-02T02:44:55.025Z,2.08
2023-02-02T02:47:35.359Z,2.03
2023-02-02T02:50:11.486Z,2.72
2023-02-02T02:52:50.904Z,2.50
2023-02-02T02:55:33.191Z,2.55
2023-02-02T02:58:22.420Z,2.60
2023-02-02T03:01:21.323Z,2.40
2023-02-02T03:04:05.528Z,2.28
2023-02-02T03:06:54.598Z,3.22
2023-02-02T03:09:41.907Z,2.70
2023-02-02T03:12:19.636Z,2.72
2023-02-02T03:14:54.891Z,2.92
2023-02-02T03:17:37.580Z,2.72
2023-02-02T03:20:21.156Z,2.67
2023-02-02T03:22:53.413Z,2.78
2023-02-02T03:25:27.986Z,2.83
2023-02-02T03:28:09.394Z,2.55
2023-02-02T03:30:49.909Z,2.33
2023-02-02T03:33:27.136Z,3.00
2023-02-02T03:35:59.245Z,3.42
2023-02-02T03:38:36.951Z,3.40
2023-02-02T03:41:15.567Z,2.63
2023-02-02T03:43:50.672Z,2.60
2023-02-02T03:46:30.825Z,2.65
2023-02-02T03:49:14.555Z,2.80
2023-02-02T03:51:49.201Z,4.13
2023-02-02T03:54:23.989Z,2.95
2023-02-02T03:57:01.713Z,3.03
2023-02-02T03:59:42.624Z,3.35
2023-02-02T04:02:17.791Z,3.17
2023-02-02T04:04:58.351Z,3.78
2023-02-02T04:07:38.450Z,2.83
2023-02-02T04:10:22.051Z,3.13
2023-02-02T04:12:57.386Z,2.50
2023-02-02T04:15:38.078Z,4.68
2023-02-02T04:18:21.241Z,3.28
2023-02-02T04:21:03.507Z,2.33
2023-02-02T04:23:38.996Z,3.03
2023-02-02T04:26:17.209Z,3.25
2023-02-02T04:28:55.083Z,3.33
2023-02-02T04:31:30.418Z,3.47
2023-02-02T04:34:09.254Z,2.97
2023-02-02T04:36:52.426Z,3.22
2023-02-02T04:39:31.296Z,3.28
2023-02-02T04:42:09.618Z,3.15
2023-02-02T04:44:50.678Z,3.58
2023-02-02T04:47:23.270Z,3.13
2023-02-02T04:50:00.959Z,2.97
2023-02-02T04:52:39.685Z,3.13
2023-02-02T04:55:15.385Z,4.25
2023-02-02T04:57:53.526Z,3.17
2023-02-02T05:00:31.686Z,2.95
2023-02-02T05:03:12.984Z,3.35
2023-02-02T05:05:53.429Z,3.35
2023-02-02T05:08:25.584Z,3.38
2023-02-02T05:11:03.805Z,6.70
2023-02-02T05:13:44.916Z,2.92
2023-02-02T05:16:23.720Z,3.13
2023-02-02T05:19:05.367Z,5.80
2023-02-02T05:21:45.638Z,8.40
2023-02-02T05:24:21.354Z,5.18
2023-02-02T05:26:58.693Z,4.18
2023-02-02T05:29:29.282Z,3.63
2023-02-02T05:32:12.829Z,3.88
2023-02-02T05:34:55.504Z,3.63
2023-02-02T05:37:30.863Z,4.50
2023-02-02T05:40:10.295Z,6.45
2023-02-02T05:42:46.053Z,4.93
2023-02-02T05:45:27.244Z,4.03
2023-02-02T05:48:06.174Z,4.30
2023-02-02T05:50:38.636Z,4.60
2023-02-02T05:53:21.775Z,4.50
2023-02-02T05:55:59.981Z,6.50
2023-02-02T05:58:37.645Z,4.97
2023-02-02T06:01:13.393Z,4.25
2023-02-02T06:03:56.540Z,6.18
2023-02-02T06:06:42.966Z,4.18
2023-02-02T06:09:32.104Z,4.15
2023-02-02T06:12:10.592Z,3.50
2023-02-02T06:14:54.867Z,3.42
2023-02-02T06:17:27.738Z,5.30
2023-02-02T06:20:14.908Z,3.88
2023-02-02T06:22:50.153Z,6.13
2023-02-02T06:25:36.445Z,5.68
2023-02-02T06:28:08.586Z,5.60
2023-02-02T06:30:46.895Z,5.55
2023-02-02T06:33:30.068Z,3.30
2023-02-02T06:36:10.295Z,3.25
2023-02-02T06:38:57.594Z,3.50
2023-02-02T06:41:36.816Z,4.25
2023-02-02T06:44:19.358Z,3.67
2023-02-02T06:46:57.988Z,3.17
2023-02-02T06:49:39.149Z,4.65
2023-02-02T06:52:23.048Z,3.65
2023-02-02T06:55:07.586Z,4.15
2023-02-02T06:57:51.343Z,3.80
2023-02-02T07:03:08.806Z,4.57
2023-02-02T07:05:50.069Z,3.72
2023-02-02T07:08:27.928Z,3.88
2023-02-02T07:11:12.475Z,3.78
2023-02-02T07:13:55.613Z,4.10
2023-02-02T07:16:31.696Z,2.85
2023-02-02T07:19:16.949Z,3.40
2023-02-02T07:21:57.779Z,3.60
2023-02-02T07:24:38.264Z,3.63
2023-02-02T07:27:09.423Z,3.08
2023-02-02T07:29:44.700Z,3.42
2023-02-02T07:32:25.508Z,3.65
2023-02-02T07:35:05.974Z,3.42
2023-02-02T07:37:45.086Z,3.20
2023-02-02T07:40:20.270Z,2.97
2023-02-02T07:43:03.943Z,3.40
2023-02-02T07:45:44.687Z,3.90
2023-02-02T07:48:19.864Z,3.33
2023-02-02T07:50:52.736Z,3.08
2023-02-02T07:53:30.614Z,2.63
2023-02-02T07:56:21.224Z,3.95
2023-02-02T07:58:58.410Z,5.38
2023-02-02T08:01:39.136Z,3.80
2023-02-02T08:04:22.746Z,3.40
2023-02-02T08:07:00.372Z,3.45
2023-02-02T08:09:35.239Z,3.63
2023-02-02T08:12:18.922Z,3.00
2023-02-02T08:14:57.619Z,3.28
2023-02-02T08:17:40.757Z,3.90
2023-02-02T08:20:19.498Z,3.30
2023-02-02T08:23:02.262Z,3.15
2023-02-02T08:25:36.859Z,2.92
2023-02-02T08:28:14.591Z,3.15
2023-02-02T08:30:52.179Z,3.35
2023-02-02T08:33:29.930Z,3.10
2023-02-02T08:36:02.721Z,3.13
2023-02-02T08:38:37.913Z,3.45
2023-02-02T08:41:18.058Z,2.78
2023-02-02T08:44:01.793Z,2.83
2023-02-02T08:46:45.117Z,3.15
2023-02-02T08:49:26.424Z,3.15
2023-02-02T08:52:04.216Z,4.25
2023-02-02T08:54:50.927Z,3.42
2023-02-02T08:57:25.911Z,3.55
2023-02-02T09:00:11.989Z,2.92
2023-02-02T09:02:52.784Z,2.42
2023-02-02T09:05:30.351Z,3.13
2023-02-02T09:08:14.992Z,3.63
2023-02-02T09:10:52.693Z,3.13
2023-02-02T09:13:30.954Z,3.33
2023-02-02T09:16:16.622Z,3.40
2023-02-02T09:18:56.885Z,2.95
2023-02-02T09:21:37.306Z,3.10
2023-02-02T09:24:17.067Z,3.67
2023-02-02T09:26:55.205Z,3.20
2023-02-02T09:29:35.698Z,3.13
2023-02-02T09:32:14.267Z,3.58
2023-02-02T09:34:49.895Z,3.22
2023-02-02T09:37:25.199Z,3.67
2023-02-02T09:40:06.412Z,3.00
2023-02-02T09:43:01.777Z,2.70
2023-02-02T09:45:48.629Z,2.50
2023-02-02T09:48:40.184Z,3.88
2023-02-02T09:51:20.996Z,3.05
2023-02-02T09:54:01.924Z,3.25
2023-02-02T09:56:50.855Z,3.03
2023-02-02T09:59:40.551Z,3.17
2023-02-02T10:02:28.990Z,3.03
2023-02-02T10:05:23.257Z,3.38
2023-02-02T10:08:10.698Z,2.78
2023-02-02T10:10:50.099Z,3.70
2023-02-02T10:13:35.283Z,3.50
2023-02-02T10:16:25.611Z,3.00
2023-02-02T10:19:12.438Z,3.70
2023-02-02T10:21:57.988Z,3.63
2023-02-02T10:24:32.695Z,3.10
2023-02-02T10:27:18.855Z,3.00
2023-02-02T10:30:03.676Z,2.83
2023-02-02T10:33:01.214Z,2.63
2023-02-02T10:36:03.539Z,3.17
2023-02-02T10:38:58.469Z,3.60
2023-02-02T10:41:54.931Z,5.00
2023-02-02T10:45:00.144Z,3.28
2023-02-02T10:47:43.345Z,3.40
2023-02-02T10:50:24.448Z,3.28
2023-02-02T10:53:10.824Z,3.42
2023-02-02T10:59:11.595Z,2.92
2023-02-02T11:01:52.394Z,2.85
2023-02-02T11:04:47.700Z,2.78
2023-02-02T11:07:20.787Z,2.65
2023-02-02T11:09:58.397Z,3.80
2023-02-02T11:12:42.673Z,3.13
2023-02-02T11:15:35.415Z,3.47
2023-02-02T11:18:28.740Z,2.80
2023-02-02T11:21:09.701Z,2.27
2023-02-02T11:24:20.280Z,3.55
2023-02-02T11:27:30.906Z,3.97
2023-02-02T11:30:15.824Z,4.40
2023-02-02T11:32:51.189Z,4.57
2023-02-02T11:35:35.425Z,4.95
2023-02-02T11:38:22.053Z,3.97
2023-02-02T11:41:11.234Z,3.58
2023-02-02T11:44:01.033Z,3.65
2023-02-02T11:46:49.255Z,2.65
2023-02-02T11:49:24.266Z,2.90
2023-02-02T11:52:15.335Z,4.55
2023-02-02T11:54:55.163Z,3.22
2023-02-02T11:57:37.775Z,3.42
2023-02-02T12:00:27.522Z,3.70
2023-02-02T12:03:07.749Z,3.13
2023-02-02T12:05:42.363Z,2.95
2023-02-02T12:08:16.752Z,3.22
2023-02-02T12:11:24.643Z,3.35
2023-02-02T12:14:32.180Z,4.30
2023-02-02T12:17:33.045Z,4.82
2023-02-02T12:20:22.840Z,5.10
2023-02-02T12:23:07.597Z,4.95
2023-02-02T12:25:49.469Z,4.70
2023-02-02T12:29:04.553Z,3.20
2023-02-02T12:32:02.563Z,4.30
2023-02-02T12:34:57.211Z,2.40
2023-02-02T12:37:42.734Z,2.83
2023-02-02T12:40:37.972Z,2.90
2023-02-02T12:43:16.755Z,3.42
2023-02-02T12:46:09.458Z,3.15
2023-02-02T12:48:54.488Z,3.75
2023-02-02T12:52:14.960Z,4.10
2023-02-02T12:55:09.970Z,4.07
2023-02-02T12:58:16.301Z,3.40
2023-02-02T13:01:07.787Z,3.00
2023-02-02T13:04:28.515Z,4.40
2023-02-02T13:07:26.094Z,6.80
2023-02-02T13:10:23.247Z,5.72
2023-02-02T13:13:08.659Z,6.47
2023-02-02T13:15:53.439Z,5.05
2023-02-02T13:18:40.988Z,4.70
2023-02-02T13:21:23.795Z,3.72
2023-02-02T13:24:11.161Z,4.05
2023-02-02T13:26:55.391Z,7.90
2023-02-02T13:29:47.235Z,5.18
2023-02-02T13:32:50.378Z,5.22
2023-02-02T13:35:35.499Z,4.55
2023-02-02T13:38:33.376Z,5.18
2023-02-02T13:41:18.766Z,4.10
2023-02-02T13:44:18.432Z,4.07
2023-02-02T13:47:26.848Z,7.07
2023-02-02T13:50:05.995Z,2.88
2023-02-02T13:52:53.513Z,4.57
2023-02-02T13:55:54.558Z,10.65
2023-02-02T13:58:26.884Z,8.52
2023-02-02T14:01:16.192Z,3.90
2023-02-02T14:04:01.351Z,10.55
2023-02-02T14:07:07.541Z,10.05
2023-02-02T14:09:45.721Z,8.00
2023-02-02T14:12:36.030Z,5.70
2023-02-02T14:15:16.804Z,4.20
2023-02-02T14:18:00.489Z,8.13
2023-02-02T14:20:53.502Z,8.57
2023-02-02T14:23:55.585Z,5.63
2023-02-02T14:26:52.505Z,5.15
2023-02-02T14:30:02.325Z,5.05
2023-02-02T14:32:41.181Z,5.13
2023-02-02T14:36:00.017Z,4.28
2023-02-02T14:38:48.485Z,3.65
2023-02-02T14:42:10.359Z,3.22
2023-02-02T14:45:11.967Z,4.03
2023-02-02T14:48:01.431Z,3.13
2023-02-02T14:50:46.924Z,4.32
2023-02-02T14:53:49.238Z,4.03
2023-02-02T14:56:26.201Z,3.88
2023-02-02T14:59:08.035Z,3.38
2023-02-02T15:01:50.956Z,3.83
2023-02-02T15:04:32.279Z,3.45
2023-02-02T15:07:31.042Z,4.18
2023-02-02T15:10:09.741Z,4.40
2023-02-02T15:12:50.402Z,4.03
2023-02-02T15:15:31.814Z,3.78
2023-02-02T15:18:12.605Z,3.35
2023-02-02T15:21:05.237Z,3.83
2023-02-02T15:23:47.613Z,3.78
2023-02-02T15:26:31.993Z,4.18
2023-02-02T15:29:27.535Z,4.47
2023-02-02T15:32:08.798Z,3.67
2023-02-02T15:34:54.145Z,4.00
2023-02-02T15:37:40.184Z,3.60
2023-02-02T15:40:32.435Z,4.10
2023-02-02T15:43:14.165Z,4.18
2023-02-02T15:46:13.915Z,4.00
2023-02-02T15:49:06.732Z,6.10
2023-02-02T15:51:48.362Z,3.70
2023-02-02T15:54:33.549Z,3.90
2023-02-02T15:57:26.818Z,5.45
2023-02-02T16:00:05.375Z,6.07
2023-02-02T16:02:59.480Z,5.07
2023-02-02T16:05:56.838Z,4.45
2023-02-02T16:08:41.095Z,4.45
2023-02-02T16:11:23.887Z,4.10
2023-02-02T16:14:20.251Z,4.60
2023-02-02T16:16:57.774Z,4.55
2023-02-02T16:19:35.461Z,3.53
2023-02-02T16:22:20.868Z,4.50
2023-02-02T16:25:00.831Z,4.53
2023-02-02T16:27:48.517Z,4.65
2023-02-02T16:30:35.776Z,4.03
2023-02-02T16:33:28.171Z,4.30
2023-02-02T16:36:26.670Z,4.18
2023-02-02T16:39:04.368Z,4.68
2023-02-02T16:41:37.555Z,4.13
2023-02-02T16:44:57.042Z,5.25
2023-02-02T16:47:42.719Z,5.40
2023-02-02T16:50:34.716Z,3.53
2023-02-02T16:53:21.309Z,3.90
2023-02-02T16:55:58.018Z,6.63
2023-02-02T16:58:36.239Z,5.32
2023-02-02T17:01:19.467Z,4.97
2023-02-02T17:04:01.248Z,6.13
2023-02-02T17:06:52.233Z,6.07
2023-02-02T17:09:40.891Z,6.82
2023-02-02T17:12:35.021Z,6.57
2023-02-02T17:15:36.559Z,6.88
2023-02-02T17:18:13.766Z,7.43
2023-02-02T17:20:46.584Z,7.68
2023-02-02T17:23:24.526Z,8.13
2023-02-02T17:26:00.520Z,7.05
2023-02-02T17:28:44.288Z,6.03
2023-02-02T17:31:22.462Z,9.30
2023-02-02T17:34:01.093Z,7.40
2023-02-02T17:36:44.724Z,10.77
2023-02-02T17:39:22.810Z,6.95
2023-02-02T17:42:00.483Z,8.35
2023-02-02T17:44:34.342Z,9.90
2023-02-02T17:47:13.550Z,6.75
2023-02-02T17:50:02.992Z,6.10
2023-02-02T17:52:41.062Z,6.75
2023-02-02T17:55:35.958Z,7.57
2023-02-02T17:58:14.984Z,5.43
2023-02-02T18:01:07.298Z,8.63
2023-02-02T18:03:54.106Z,6.70
2023-02-02T18:06:37.719Z,7.53
2023-02-02T18:09:13.290Z,7.85
2023-02-02T18:11:48.419Z,6.43
2023-02-02T18:14:33.076Z,6.50
2023-02-02T18:17:09.358Z,4.97
2023-02-02T18:19:47.508Z,9.15
2023-02-02T18:22:26.219Z,4.82
2023-02-02T18:24:56.062Z,4.35
2023-02-02T18:27:29.845Z,4.97
2023-02-02T18:30:11.467Z,5.63
2023-02-02T18:32:49.435Z,5.18
2023-02-02T18:35:28.265Z,5.45
2023-02-02T18:38:03.545Z,5.57
2023-02-02T18:40:38.868Z,5.55
2023-02-02T18:43:21.370Z,4.47
2023-02-02T18:46:11.261Z,4.88
2023-02-02T18:48:44.945Z,6.22
2023-02-02T18:51:26.142Z,14.20
2023-02-02T18:54:02.572Z,14.13
2023-02-02T18:56:37.954Z,9.75
2023-02-02T18:59:15.772Z,11.52
2023-02-02T19:01:51.609Z,11.05
2023-02-02T19:04:20.760Z,11.90
2023-02-02T19:07:31.891Z,9.50
2023-02-02T19:10:12.842Z,8.93
2023-02-02T19:13:05.156Z,9.30
2023-02-02T19:15:48.044Z,12.85
2023-02-02T19:18:29.094Z,8.98
2023-02-02T19:21:13.124Z,15.07
2023-02-02T19:23:49.162Z,8.55
2023-02-02T19:26:31.622Z,9.00
2023-02-02T19:29:19.303Z,9.10
2023-02-02T19:32:15.103Z,15.57
2023-02-02T19:34:52.244Z,12.07
2023-02-02T19:37:38.961Z,8.82
2023-02-02T19:40:14.559Z,7.85
2023-02-02T19:43:10.270Z,15.98
2023-02-02T19:45:48.706Z,10.82
2023-02-02T19:48:23.645Z,12.65
2023-02-02T19:51:39.836Z,6.18
2023-02-02T19:54:49.287Z,7.57
2023-02-02T19:57:46.018Z,13.18
2023-02-02T20:00:27.395Z,12.05
2023-02-02T20:03:13.773Z,11.57
2023-02-02T20:05:54.578Z,5.88
2023-02-02T20:08:38.401Z,7.47
2023-02-02T20:11:32.300Z,6.20
2023-02-02T20:14:28.590Z,7.32
2023-02-02T20:17:10.540Z,7.15
2023-02-02T20:19:47.767Z,5.65
2023-02-02T20:22:35.638Z,6.35
2023-02-02T20:25:21.590Z,8.35
2023-02-02T20:27:53.829Z,6.50
2023-02-02T20:30:32.569Z,6.05
2023-02-02T20:33:07.763Z,6.32
2023-02-02T20:35:45.509Z,6.45
2023-02-02T20:38:45.977Z,5.82
2023-02-02T20:41:24.607Z,5.63
2023-02-02T20:44:04.840Z,4.90
2023-02-02T20:46:51.876Z,5.25
2023-02-02T20:49:29.131Z,5.50
2023-02-02T20:52:04.020Z,12.82
2023-02-02T20:54:42.357Z,7.82
2023-02-02T20:57:20.507Z,6.50
2023-02-02T21:00:07.629Z,18.23
2023-02-02T21:02:48.619Z,32.50
2023-02-02T21:05:26.551Z,18.88
2023-02-02T21:08:07.242Z,16.20
2023-02-02T21:10:50.283Z,7.40
2023-02-02T21:13:30.173Z,6.07
2023-02-02T21:16:07.751Z,6.60
2023-02-02T21:18:47.172Z,16.77
2023-02-02T21:21:22.668Z,9.25
2023-02-02T21:24:05.306Z,24.52
2023-02-02T21:26:38.497Z,16.65
2023-02-02T21:29:16.117Z,27.75
2023-02-02T21:31:58.957Z,16.27
2023-02-02T21:34:37.754Z,12.87
2023-02-02T21:37:20.598Z,9.18
2023-02-02T21:40:00.999Z,6.70
2023-02-02T21:42:40.823Z,10.00
2023-02-02T21:45:45.304Z,11.23
2023-02-02T21:48:47.060Z,10.20
2023-02-02T21:51:38.158Z,9.90
2023-02-02T21:54:20.243Z,9.68
2023-02-02T21:57:03.903Z,8.32
2023-02-02T21:59:39.245Z,9.57
2023-02-02T22:02:44.154Z,15.45
2023-02-02T22:05:41.545Z,9.43
2023-02-02T22:08:31.578Z,12.05
2023-02-02T22:11:19.881Z,11.48
2023-02-02T22:13:56.759Z,12.63
2023-02-02T22:16:41.067Z,20.00
2023-02-02T22:19:44.142Z,18.38
2023-02-02T22:22:40.724Z,20.23
2023-02-02T22:25:31.032Z,11.80
2023-02-02T22:28:27.428Z,9.27
2023-02-02T22:31:05.041Z,8.68
2023-02-02T22:33:48.447Z,10.80
2023-02-02T22:36:29.565Z,14.43
2023-02-02T22:39:07.270Z,8.82
2023-02-02T22:41:44.136Z,11.65
2023-02-02T22:44:16.256Z,13.90
2023-02-02T22:47:02.984Z,9.55
2023-02-02T22:49:43.184Z,11.43
2023-02-02T22:52:20.839Z,10.45
2023-02-02T22:54:55.961Z,14.18
2023-02-02T22:57:25.903Z,11.07
2023-02-02T23:00:03.969Z,9.45
2023-02-02T23:02:41.780Z,10.48
2023-02-02T23:05:17.677Z,7.68
2023-02-02T23:08:05.934Z,10.90
2023-02-02T23:10:44.620Z,10.10
2023-02-02T23:13:22.266Z,8.70
2023-02-02T23:16:05.526Z,8.15
2023-02-02T23:18:40.573Z,7.72
2023-02-02T23:21:16.251Z,7.03
2023-02-02T23:23:51.490Z,7.18
2023-02-02T23:26:28.589Z,6.50
2023-02-02T23:29:03.978Z,6.65
2023-02-02T23:31:45.768Z,6.95
2023-02-02T23:34:27.549Z,8.70
2023-02-02T23:37:05.827Z,8.15
2023-02-02T23:39:41.507Z,7.07
2023-02-02T23:42:14.102Z,8.43
2023-02-02T23:44:49.259Z,8.43
2023-02-02T23:47:29.814Z,7.43
2023-02-02T23:50:10.598Z,7.07
2023-02-02T23:52:48.275Z,7.07
2023-02-02T23:55:29.959Z,6.15
2023-02-02T23:58:08.324Z,6.57
